createdAt,value
2023-02-07T00:01:33.288Z,4.90
2023-02-07T00:04:03.229Z,2.53
2023-02-07T00:06:32.498Z,3.17
2023-02-07T00:09:04.825Z,3.38
2023-02-07T00:11:32.168Z,2.75
2023-02-07T00:13:59.888Z,3.25
2023-02-07T00:16:28.536Z,2.47
2023-02-07T00:18:59.045Z,3.85
2023-02-07T00:21:28.251Z,2.75
2023-02-07T00:23:56.110Z,2.08
2023-02-07T00:26:26.422Z,1.83
2023-02-07T00:28:55.178Z,3.30
2023-02-07T00:31:26.650Z,2.95
2023-02-07T00:33:56.369Z,1.98
2023-02-07T00:36:26.339Z,3.08
2023-02-07T00:38:56.531Z,2.85
2023-02-07T00:41:25.888Z,3.28
2023-02-07T00:43:54.379Z,3.75
2023-02-07T00:46:24.372Z,3.63
2023-02-07T00:48:54.689Z,2.30
2023-02-07T00:51:22.160Z,3.08
2023-02-07T00:53:51.376Z,3.08
2023-02-07T00:56:21.728Z,3.92
2023-02-07T00:58:51.072Z,2.78
2023-02-07T01:01:18.959Z,3.80
2023-02-07T01:03:46.635Z,4.20
2023-02-07T01:06:14.375Z,3.75
2023-02-07T01:08:41.717Z,4.97
2023-02-07T01:11:11.441Z,4.38
2023-02-07T01:13:39.427Z,3.00
2023-02-07T01:16:08.287Z,2.88
2023-02-07T01:18:35.564Z,3.88
2023-02-07T01:21:13.109Z,4.55
2023-02-07T01:23:40.408Z,4.47
2023-02-07T01:26:08.432Z,5.00
2023-02-07T01:28:35.808Z,3.00
2023-02-07T01:31:09.110Z,7.60
2023-02-07T01:33:38.376Z,4.88
2023-02-07T01:36:07.263Z,5.15
2023-02-07T01:38:34.539Z,7.57
2023-02-07T01:41:01.927Z,6.35
2023-02-07T01:43:29.403Z,5.60
2023-02-07T01:45:56.710Z,6.53
2023-02-07T01:48:31.937Z,10.45
2023-02-07T01:51:04.652Z,9.80
2023-02-07T01:53:35.085Z,5.72
2023-02-07T01:56:05.266Z,7.90
2023-02-07T01:58:33.611Z,6.72
2023-02-07T02:01:04.200Z,6.53
2023-02-07T02:03:34.963Z,7.30
2023-02-07T02:06:02.830Z,6.63
2023-02-07T02:08:30.147Z,6.53
2023-02-07T02:11:10.216Z,8.13
2023-02-07T02:13:45.007Z,6.82
2023-02-07T02:16:20.492Z,6.50
2023-02-07T02:19:03.498Z,7.85
2023-02-07T02:21:58.694Z,8.52
2023-02-07T02:25:07.136Z,9.60
2023-02-07T02:28:02.064Z,8.05
2023-02-07T02:30:41.400Z,8.90
2023-02-07T02:33:33.810Z,7.85
2023-02-07T02:36:16.491Z,7.82
2023-02-07T02:38:51.590Z,9.65
2023-02-07T02:41:27.270Z,10.90
2023-02-07T02:44:01.734Z,9.45
2023-02-07T02:46:34.384Z,7.07
2023-02-07T02:49:08.124Z,11.38
2023-02-07T02:51:38.194Z,12.27
2023-02-07T02:54:27.805Z,8.40
2023-02-07T02:57:31.186Z,8.88
2023-02-07T03:00:27.011Z,9.73
2023-02-07T03:03:11.255Z,8.73
2023-02-07T03:05:52.837Z,9.35
2023-02-07T03:08:30.869Z,10.18
2023-02-07T03:11:07.625Z,10.38
2023-02-07T03:13:49.351Z,10.18
2023-02-07T03:16:22.208Z,11.13
2023-02-07T03:18:57.066Z,12.00
2023-02-07T03:21:30.330Z,10.73
2023-02-07T03:24:01.360Z,13.93
2023-02-07T03:26:30.718Z,11.07
2023-02-07T03:28:59.706Z,11.80
2023-02-07T03:31:29.154Z,10.00
2023-02-07T03:34:03.082Z,11.27
2023-02-07T03:36:38.634Z,10.48
2023-02-07T03:39:05.934Z,10.30
2023-02-07T03:41:40.203Z,10.93
2023-02-07T03:44:09.679Z,13.57
2023-02-07T03:46:38.325Z,11.02
2023-02-07T03:49:06.551Z,19.63
2023-02-07T03:51:35.910Z,14.02
2023-02-07T03:54:03.480Z,13.15
2023-02-07T03:56:30.867Z,15.80
2023-02-07T03:58:58.189Z,13.05
2023-02-07T04:01:25.552Z,13.18
2023-02-07T04:03:52.851Z,12.02
2023-02-07T04:06:20.607Z,14.20
2023-02-07T04:08:49.400Z,12.15
2023-02-07T04:11:16.645Z,14.35
2023-02-07T04:13:43.915Z,14.38
2023-02-07T04:16:11.384Z,11.43
2023-02-07T04:18:38.728Z,14.35
2023-02-07T04:21:07.915Z,16.40
2023-02-07T04:23:35.923Z,15.13
2023-02-07T04:26:04.969Z,17.10
2023-02-07T04:28:32.368Z,14.45
2023-02-07T04:30:59.663Z,14.70
2023-02-07T04:33:27.073Z,13.85
2023-02-07T04:35:55.727Z,14.80
2023-02-07T04:38:23.235Z,13.52
2023-02-07T04:40:50.480Z,16.92
2023-02-07T04:43:19.415Z,16.75
2023-02-07T04:45:48.640Z,16.35
2023-02-07T04:48:15.991Z,14.00
2023-02-07T04:50:43.799Z,16.48
2023-02-07T04:53:13.593Z,16.85
2023-02-07T04:55:41.066Z,14.80
2023-02-07T04:58:08.413Z,15.30
2023-02-07T05:00:37.253Z,16.58
2023-02-07T05:03:04.623Z,17.60
2023-02-07T05:05:32.051Z,15.23
2023-02-07T05:07:59.444Z,18.50
2023-02-07T05:10:26.700Z,13.95
2023-02-07T05:12:54.022Z,12.57
2023-02-07T05:15:21.394Z,15.27
2023-02-07T05:17:50.174Z,16.10
2023-02-07T05:20:17.658Z,15.07
2023-02-07T05:22:44.981Z,15.65
2023-02-07T05:25:12.433Z,16.08
2023-02-07T05:27:39.690Z,17.35
2023-02-07T05:30:08.134Z,14.93
2023-02-07T05:32:38.174Z,18.35
2023-02-07T05:35:07.423Z,18.55
2023-02-07T05:37:34.778Z,18.45
2023-02-07T05:40:02.385Z,16.75
2023-02-07T05:42:30.022Z,17.58
2023-02-07T05:44:57.427Z,21.77
2023-02-07T05:47:24.895Z,19.40
2023-02-07T05:49:52.482Z,22.65
2023-02-07T05:52:21.366Z,18.20
2023-02-07T05:54:50.510Z,17.80
2023-02-07T05:57:20.309Z,18.73
2023-02-07T05:59:49.151Z,16.83
2023-02-07T06:02:16.622Z,16.67
2023-02-07T06:04:44.430Z,17.17
2023-02-07T06:07:11.884Z,18.15
2023-02-07T06:09:41.850Z,20.10
2023-02-07T06:12:09.205Z,19.63
2023-02-07T06:14:36.760Z,16.65
2023-02-07T06:17:04.232Z,18.77
2023-02-07T06:19:31.713Z,17.95
2023-02-07T06:22:02.054Z,18.90
2023-02-07T06:24:29.582Z,19.63
2023-02-07T06:27:01.839Z,22.25
2023-02-07T06:29:31.065Z,23.42
2023-02-07T06:31:58.486Z,19.67
2023-02-07T06:34:26.204Z,18.63
2023-02-07T06:36:53.973Z,22.42
2023-02-07T06:39:25.477Z,24.25
2023-02-07T06:41:54.910Z,22.42
2023-02-07T06:44:27.332Z,19.38
2023-02-07T06:46:54.764Z,17.27
2023-02-07T06:49:22.201Z,18.98
2023-02-07T06:51:52.034Z,22.00
2023-02-07T06:54:19.600Z,23.27
2023-02-07T06:56:46.997Z,20.73
2023-02-07T06:59:14.630Z,31.40
2023-02-07T07:01:43.669Z,21.00
2023-02-07T07:04:13.447Z,21.88
2023-02-07T07:06:43.536Z,22.58
2023-02-07T07:09:10.872Z,24.70
2023-02-07T07:11:38.329Z,27.63
2023-02-07T07:14:05.758Z,16.70
2023-02-07T07:16:33.065Z,29.83
2023-02-07T07:19:02.070Z,17.23
2023-02-07T07:21:29.685Z,21.15
2023-02-07T07:23:57.129Z,22.35
2023-02-07T07:26:24.608Z,22.02
2023-02-07T07:28:52.153Z,17.52
2023-02-07T07:31:19.546Z,24.67
2023-02-07T07:33:46.959Z,19.95
2023-02-07T07:36:15.617Z,24.63
2023-02-07T07:38:46.001Z,18.83
2023-02-07T07:41:16.910Z,21.15
2023-02-07T07:43:44.417Z,18.48
2023-02-07T07:46:11.784Z,22.55
2023-02-07T07:48:41.096Z,20.45
2023-02-07T07:51:08.391Z,19.13
2023-02-07T07:53:39.034Z,16.10
2023-02-07T07:56:09.554Z,19.65
2023-02-07T07:58:46.230Z,20.30
2023-02-07T08:01:13.820Z,20.10
2023-02-07T08:03:41.376Z,20.95
2023-02-07T08:06:08.785Z,20.25
2023-02-07T08:08:37.771Z,20.70
2023-02-07T08:11:07.130Z,20.85
2023-02-07T08:13:37.848Z,20.80
2023-02-07T08:16:07.398Z,20.25
2023-02-07T08:18:37.386Z,16.42
2023-02-07T08:21:05.126Z,21.27
2023-02-07T08:23:33.210Z,19.45
2023-02-07T08:26:04.135Z,21.38
2023-02-07T08:28:32.666Z,16.63
2023-02-07T08:31:00.776Z,20.17
2023-02-07T08:33:30.337Z,18.80
2023-02-07T08:35:58.106Z,17.27
2023-02-07T08:38:25.541Z,19.63
2023-02-07T08:40:52.983Z,18.48
2023-02-07T08:43:21.822Z,18.92
2023-02-07T08:45:49.416Z,21.00
2023-02-07T08:48:16.830Z,23.83
2023-02-07T08:50:44.282Z,19.02
2023-02-07T08:53:12.157Z,19.52
2023-02-07T08:55:40.608Z,17.20
2023-02-07T08:58:12.554Z,17.83
2023-02-07T09:00:41.790Z,20.23
2023-02-07T09:03:09.614Z,21.63
2023-02-07T09:05:38.240Z,23.75
2023-02-07T09:08:05.581Z,21.63
2023-02-07T09:10:34.926Z,17.90
2023-02-07T09:13:02.428Z,20.77
2023-02-07T09:15:30.175Z,15.82
2023-02-07T09:18:08.119Z,15.70
2023-02-07T09:20:38.880Z,16.88
2023-02-07T09:23:06.782Z,17.60
2023-02-07T09:25:34.118Z,18.73
2023-02-07T09:28:01.570Z,15.40
2023-02-07T09:30:28.952Z,17.08
2023-02-07T09:32:57.434Z,16.13
2023-02-07T09:35:27.560Z,18.58
2023-02-07T09:37:55.422Z,15.90
2023-02-07T09:40:23.171Z,16.17
2023-02-07T09:42:56.967Z,21.00
2023-02-07T09:45:32.126Z,17.27
2023-02-07T09:48:04.318Z,17.52
2023-02-07T09:50:39.056Z,13.27
2023-02-07T09:53:16.907Z,15.60
2023-02-07T09:55:49.218Z,13.77
2023-02-07T09:58:21.084Z,17.52
2023-02-07T10:00:59.352Z,15.30
2023-02-07T10:03:27.079Z,18.00
2023-02-07T10:06:09.269Z,16.55
2023-02-07T10:08:47.129Z,13.57
2023-02-07T10:11:23.818Z,13.88
2023-02-07T10:14:07.291Z,14.88
2023-02-07T10:16:52.762Z,14.38
2023-02-07T10:19:29.672Z,19.30
2023-02-07T10:22:13.196Z,15.32
2023-02-07T10:24:55.597Z,13.43
2023-02-07T10:27:30.830Z,16.27
2023-02-07T10:30:11.720Z,15.20
2023-02-07T10:32:39.801Z,14.50
2023-02-07T10:35:16.383Z,15.63
2023-02-07T10:37:47.040Z,17.75
2023-02-07T10:40:22.912Z,11.98
2023-02-07T10:42:57.845Z,11.60
2023-02-07T10:45:25.303Z,12.75
2023-02-07T10:47:52.652Z,11.85
2023-02-07T10:50:29.621Z,12.90
2023-02-07T10:52:59.468Z,10.50
2023-02-07T10:55:51.108Z,12.45
2023-02-07T10:58:24.170Z,11.82
2023-02-07T11:00:53.015Z,10.20
2023-02-07T11:03:22.181Z,15.90
2023-02-07T11:05:58.390Z,13.32
2023-02-07T11:08:28.683Z,10.45
2023-02-07T11:10:58.494Z,12.38
2023-02-07T11:13:29.061Z,11.38
2023-02-07T11:16:00.652Z,11.63
2023-02-07T11:18:44.971Z,10.38
2023-02-07T11:21:28.299Z,11.45
2023-02-07T11:24:01.640Z,9.32
2023-02-07T11:26:30.825Z,13.55
2023-02-07T11:29:07.997Z,9.50
2023-02-07T11:31:39.043Z,10.23
2023-02-07T11:34:24.171Z,11.85
2023-02-07T11:36:51.636Z,10.65
2023-02-07T11:39:22.896Z,10.80
2023-02-07T11:41:56.700Z,10.02
2023-02-07T11:44:31.820Z,6.22
2023-02-07T11:47:05.350Z,9.88
2023-02-07T11:49:47.568Z,8.98
2023-02-07T11:52:15.788Z,11.05
2023-02-07T11:54:53.331Z,8.43
2023-02-07T11:57:22.214Z,8.85
2023-02-07T12:00:06.978Z,9.98
2023-02-07T12:02:41.152Z,9.07
2023-02-07T12:05:16.735Z,10.32
2023-02-07T12:07:48.322Z,8.27
2023-02-07T12:10:27.283Z,8.27
2023-02-07T12:13:00.750Z,9.27
2023-02-07T12:15:33.606Z,7.88
2023-02-07T12:18:10.796Z,11.98
2023-02-07T12:20:41.970Z,10.90
2023-02-07T12:23:40.793Z,7.07
2023-02-07T12:26:19.860Z,8.90
2023-02-07T12:29:13.188Z,9.80
2023-02-07T12:31:54.754Z,8.60
2023-02-07T12:34:30.608Z,8.18
2023-02-07T12:37:04.492Z,8.45
2023-02-07T12:39:39.792Z,8.48
2023-02-07T12:42:31.933Z,7.65
2023-02-07T12:47:45.295Z,8.38
2023-02-07T12:50:32.753Z,6.82
2023-02-07T12:53:16.821Z,7.82
2023-02-07T12:55:56.391Z,8.00
2023-02-07T12:58:39.935Z,9.00
2023-02-07T13:01:15.504Z,7.18
2023-02-07T13:04:06.093Z,7.00
2023-02-07T13:06:42.090Z,6.07
2023-02-07T13:09:21.706Z,6.32
2023-02-07T13:12:00.227Z,7.53
2023-02-07T13:14:41.977Z,9.40
2023-02-07T13:17:29.193Z,8.30
2023-02-07T13:20:06.221Z,9.20
2023-02-07T13:22:40.086Z,6.32
2023-02-07T13:25:16.249Z,6.97
2023-02-07T13:27:44.994Z,9.25
2023-02-07T13:30:20.792Z,8.18
2023-02-07T13:32:51.032Z,7.88
2023-02-07T13:35:23.470Z,6.10
2023-02-07T13:37:59.252Z,6.45
2023-02-07T13:40:33.837Z,9.23
2023-02-07T13:43:07.564Z,8.05
2023-02-07T13:45:45.705Z,10.50
2023-02-07T13:48:23.274Z,4.63
2023-02-07T13:50:59.245Z,5.95
2023-02-07T13:53:46.370Z,8.75
2023-02-07T13:56:16.230Z,6.25
2023-02-07T13:58:54.833Z,8.23
2023-02-07T14:01:26.153Z,7.38
2023-02-07T14:04:03.612Z,9.02
2023-02-07T14:06:34.074Z,14.80
2023-02-07T14:09:06.232Z,6.65
2023-02-07T14:11:39.104Z,6.13
2023-02-07T14:14:14.584Z,7.78
2023-02-07T14:17:05.846Z,6.72
2023-02-07T14:19:54.313Z,5.80
2023-02-07T14:22:27.310Z,5.20
2023-02-07T14:25:20.275Z,6.70
2023-02-07T14:28:18.558Z,6.38
2023-02-07T14:31:11.300Z,6.55
2023-02-07T14:33:40.260Z,5.97
2023-02-07T14:36:21.245Z,7.55
2023-02-07T14:39:22.549Z,6.20
2023-02-07T14:41:52.193Z,5.90
2023-02-07T14:44:25.422Z,5.00
2023-02-07T14:46:58.061Z,5.07
2023-02-07T14:49:32.889Z,5.40
2023-02-07T14:52:02.427Z,4.95
2023-02-07T14:54:41.313Z,7.05
2023-02-07T14:57:19.913Z,5.20
2023-02-07T14:59:54.200Z,4.60
2023-02-07T15:02:43.424Z,6.10
2023-02-07T15:05:24.163Z,6.22
2023-02-07T15:08:16.176Z,5.30
2023-02-07T15:10:51.814Z,3.33
2023-02-07T15:13:25.302Z,6.03
2023-02-07T15:15:55.552Z,4.05
2023-02-07T15:18:27.115Z,4.00
2023-02-07T15:20:58.895Z,3.58
2023-02-07T15:25:55.776Z,5.03
2023-02-07T15:28:28.192Z,4.90
2023-02-07T15:30:58.623Z,5.00
2023-02-07T15:33:29.147Z,5.88
2023-02-07T15:35:57.875Z,4.53
2023-02-07T15:41:41.376Z,5.68
2023-02-07T15:44:31.011Z,6.95
2023-02-07T15:47:32.298Z,3.97
2023-02-07T15:50:01.350Z,3.63
2023-02-07T15:52:33.871Z,4.55
2023-02-07T15:55:05.025Z,7.35
2023-02-07T15:57:35.963Z,5.43
2023-02-07T16:00:07.412Z,3.70
2023-02-07T16:02:57.948Z,4.97
2023-02-07T16:05:29.246Z,4.30
2023-02-07T16:07:59.596Z,4.40
2023-02-07T16:10:38.730Z,4.45
2023-02-07T16:13:20.151Z,4.03
2023-02-07T16:15:55.773Z,5.78
2023-02-07T16:18:37.310Z,5.18
2023-02-07T16:21:06.756Z,3.67
2023-02-07T16:23:36.289Z,4.95
2023-02-07T16:26:04.273Z,7.93
2023-02-07T16:28:34.636Z,3.97
2023-02-07T16:31:02.433Z,3.97
2023-02-07T16:33:29.817Z,4.47
2023-02-07T16:36:00.186Z,5.75
2023-02-07T16:38:27.647Z,6.20
2023-02-07T16:40:59.767Z,6.32
2023-02-07T16:43:35.517Z,6.30
2023-02-07T16:46:10.839Z,4.20
2023-02-07T16:48:39.471Z,5.93
2023-02-07T16:51:09.707Z,6.05
2023-02-07T16:53:37.007Z,7.40
2023-02-07T16:56:06.205Z,5.75
2023-02-07T16:58:34.228Z,5.72
2023-02-07T17:01:04.272Z,6.55
2023-02-07T17:03:31.778Z,7.07
2023-02-07T17:05:59.159Z,7.90
2023-02-07T17:08:29.027Z,8.25
2023-02-07T17:11:22.902Z,7.43
2023-02-07T17:14:05.922Z,8.82
2023-02-07T17:16:33.375Z,6.88
2023-02-07T17:19:00.825Z,6.95
2023-02-07T17:21:28.200Z,10.05
2023-02-07T17:23:57.409Z,5.90
2023-02-07T17:26:27.405Z,9.27
2023-02-07T17:28:56.184Z,6.03
2023-02-07T17:31:24.708Z,6.22
2023-02-07T17:33:53.524Z,5.68
2023-02-07T17:36:20.869Z,6.35
2023-02-07T17:38:51.338Z,6.10
2023-02-07T17:41:18.760Z,5.40
2023-02-07T17:43:46.232Z,8.45
2023-02-07T17:46:18.289Z,5.90
2023-02-07T17:48:47.778Z,6.28
2023-02-07T17:51:18.486Z,12.13
2023-02-07T17:53:46.434Z,5.82
2023-02-07T17:56:20.495Z,8.07
2023-02-07T17:58:47.934Z,7.03
2023-02-07T18:01:16.779Z,8.25
2023-02-07T18:03:44.184Z,9.00
2023-02-07T18:06:15.235Z,8.43
2023-02-07T18:08:43.652Z,8.73
2023-02-07T18:11:11.636Z,8.23
2023-02-07T18:13:39.133Z,7.18
2023-02-07T18:16:07.390Z,6.88
2023-02-07T18:18:36.124Z,9.68
2023-02-07T18:21:05.628Z,8.73
2023-02-07T18:26:03.329Z,7.25
2023-02-07T18:28:31.029Z,6.80
2023-02-07T18:30:58.418Z,7.03
2023-02-07T18:33:25.868Z,8.45
2023-02-07T18:36:00.008Z,11.23
2023-02-07T18:38:28.165Z,7.18
2023-02-07T18:40:55.617Z,12.02
2023-02-07T18:43:23.171Z,8.02
2023-02-07T18:45:50.715Z,9.05
2023-02-07T18:48:18.188Z,10.77
2023-02-07T18:50:48.938Z,7.68
2023-02-07T18:53:21.381Z,8.10
2023-02-07T18:55:48.793Z,9.52
2023-02-07T18:58:16.137Z,6.40
2023-02-07T19:00:43.698Z,6.10
2023-02-07T19:03:27.057Z,8.98
2023-02-07T19:05:58.510Z,9.52
2023-02-07T19:08:28.024Z,9.40
2023-02-07T19:10:55.969Z,10.95
2023-02-07T19:13:25.898Z,9.68
2023-02-07T19:15:53.414Z,10.88
2023-02-07T19:18:28.034Z,11.23
2023-02-07T19:20:55.576Z,14.40
2023-02-07T19:23:29.344Z,14.63
2023-02-07T19:25:59.877Z,11.10
2023-02-07T19:28:28.144Z,15.93
2023-02-07T19:30:58.096Z,6.57
2023-02-07T19:33:26.141Z,9.35
2023-02-07T19:35:53.900Z,9.70
2023-02-07T19:38:23.684Z,12.93
2023-02-07T19:40:57.609Z,12.05
2023-02-07T19:43:31.070Z,9.70
2023-02-07T19:45:58.594Z,12.77
2023-02-07T19:48:32.480Z,14.88
2023-02-07T19:53:29.293Z,17.60
2023-02-07T19:56:01.069Z,19.90
2023-02-07T19:58:30.241Z,18.27
2023-02-07T20:00:58.725Z,22.23
2023-02-07T20:03:26.752Z,15.43
2023-02-07T20:05:55.591Z,17.67
2023-02-07T20:08:23.007Z,16.90
2023-02-07T20:10:50.515Z,15.93
2023-02-07T20:13:19.584Z,14.27
2023-02-07T20:15:49.699Z,17.77
2023-02-07T20:18:17.026Z,14.23
2023-02-07T20:20:47.827Z,17.05
2023-02-07T20:23:16.167Z,16.65
2023-02-07T20:25:43.728Z,12.52
2023-02-07T20:28:11.225Z,15.07
2023-02-07T20:30:44.224Z,14.25
2023-02-07T20:33:11.749Z,17.70
2023-02-07T20:35:40.763Z,17.25
2023-02-07T20:38:08.226Z,16.73
2023-02-07T20:40:35.456Z,18.27
2023-02-07T20:43:05.327Z,16.27
2023-02-07T20:45:33.118Z,16.02
2023-02-07T20:48:01.888Z,15.20
2023-02-07T20:50:29.232Z,18.65
2023-02-07T20:52:56.673Z,18.55
2023-02-07T20:55:24.037Z,16.27
2023-02-07T20:57:51.546Z,14.02
2023-02-07T21:00:19.340Z,13.65
2023-02-07T21:02:51.719Z,16.30
2023-02-07T21:05:20.498Z,16.50
2023-02-07T21:07:47.855Z,17.90
2023-02-07T21:10:15.278Z,16.30
2023-02-07T21:12:43.896Z,19.55
2023-02-07T21:15:13.552Z,22.20
2023-02-07T21:17:43.003Z,18.35
2023-02-07T21:20:14.036Z,18.60
2023-02-07T21:22:46.726Z,22.27
2023-02-07T21:25:15.344Z,20.33
2023-02-07T21:27:43.693Z,24.08
2023-02-07T21:30:12.138Z,24.00
2023-02-07T21:32:44.004Z,20.05
2023-02-07T21:35:11.458Z,17.00
2023-02-07T21:37:39.006Z,19.13
2023-02-07T21:40:09.798Z,16.55
2023-02-07T21:42:37.230Z,20.37
2023-02-07T21:45:05.199Z,24.50
2023-02-07T21:47:32.464Z,22.50
2023-02-07T21:49:59.814Z,20.58
2023-02-07T21:52:28.964Z,16.33
2023-02-07T21:54:59.078Z,17.20
2023-02-07T21:57:28.342Z,25.40
2023-02-07T21:59:55.643Z,19.67
2023-02-07T22:02:23.554Z,16.80
2023-02-07T22:04:53.305Z,19.83
2023-02-07T22:07:20.880Z,18.08
2023-02-07T22:09:50.346Z,14.93
2023-02-07T22:12:17.649Z,26.27
2023-02-07T22:14:46.608Z,27.25
2023-02-07T22:17:14.178Z,27.10
2023-02-07T22:19:41.675Z,19.25
2023-02-07T22:22:11.270Z,23.52
2023-02-07T22:24:39.303Z,20.58
2023-02-07T22:27:06.954Z,20.92
2023-02-07T22:29:35.197Z,18.58
2023-02-07T22:32:04.388Z,15.50
2023-02-07T22:34:31.978Z,18.05
2023-02-07T22:37:02.797Z,19.15
2023-02-07T22:39:30.974Z,16.02
2023-02-07T22:41:58.341Z,17.48
2023-02-07T22:44:28.275Z,15.05
2023-02-07T22:46:58.299Z,15.65
2023-02-07T22:49:28.888Z,18.85
2023-02-07T22:51:56.453Z,23.27
2023-02-07T22:54:24.026Z,21.45
2023-02-07T22:56:51.426Z,23.73
2023-02-07T22:59:19.107Z,19.17
2023-02-07T23:01:46.668Z,25.33
2023-02-07T23:04:15.867Z,20.80
2023-02-07T23:06:44.977Z,16.60
2023-02-07T23:09:14.117Z,27.80
2023-02-07T23:11:41.806Z,23.30
2023-02-07T23:14:13.472Z,23.10
2023-02-07T23:16:40.878Z,23.52
2023-02-07T23:19:12.325Z,21.00
2023-02-07T23:21:41.066Z,23.60
2023-02-07T23:24:10.599Z,24.63
2023-02-07T23:26:39.908Z,16.90
2023-02-07T23:29:07.406Z,23.98
2023-02-07T23:31:34.873Z,24.33
2023-02-07T23:34:02.500Z,25.40
2023-02-07T23:36:30.931Z,24.23
2023-02-07T23:39:00.280Z,24.05
2023-02-07T23:41:29.880Z,23.65
2023-02-07T23:43:59.962Z,21.35
2023-02-07T23:46:28.099Z,19.58
2023-02-07T23:48:55.660Z,23.60
2023-02-07T23:51:23.160Z,19.17
2023-02-07T23:53:51.008Z,21.48
2023-02-07T23:56:35.190Z,20.42
2023-02-07T23:59:02.780Z,21.27
